TFM - Tactical Decision Aid (Experimental) INFO Settings
ID: Runway Winds: CIG/VIS Threshold: METAR Board: Map:

KDNL - Augusta-Daniel Field

Updated at: 0732 UTC 18 Oct 2017
Latest TAF at: 0529 UTC 18 Oct 2017

TAF Board

Time0653Z18/08Z18/09Z18/10Z18/11Z18/12Z18/13Z18/14Z18/15Z18/16Z18/17Z18/18Z18/19Z18/20Z
TypeOBSPRVLPRVLPRVLPRVLPRVLPRVLPRVLPRVLPRVLPRVLPRVLPRVLPRVL
VIS10>6>6>6>6>6>6>6>6>6>6>6>6>6
CIG----------------------------
CoverCLRSKCSKCSKCSKCSKCSKCSKCSKCSKCSKCSKCSKCSKC
FltCatVFRVFRVFRVFRVFRVFRVFRVFRVFRVFRVFRVFRVFRVFR
WX----------------------------
WDir50VRBVRBVRBVRBVRBVRBVRB505050505050
WSpd64444444888888
WGst----------------------------
TAF
KDNL 180529Z 1806/1906 VRB04KT P6SM SKC
  FM181500 05008KT P6SM SKC
  FM182300 VRB03KT P6SM SKC


METAR
KDNL 180653Z AUTO 05006KT 10SM CLR 13/04 A3029 RMK AO2 SLP254 T01280044

TAF/METAR Board Legend

Potential Impact
  None Marginal Slight Moderate High
Visibility (sm) >5 3≤X≤5 2≤X<3 1≤X<2 <1
Ceiling (100 ft) >30 10≤X≤30 8≤X<10 5≤X<8 <5
Wind Speed (kt) <10 10≤X<20 20≤X<30 ≥30
Wind Gust (kt) <15 15≤X<25 25≤X<35 ≥35
Weather No Wx Reported VCTS -TS,-FZRA TS,FZRA +TS,+FZRA